createdAt,value
2023-01-13T00:01:07.258Z,15.3
2023-01-13T00:11:07.336Z,15.2
2023-01-13T00:21:07.456Z,15.2
2023-01-13T00:31:07.432Z,15.1
2023-01-13T00:41:07.496Z,15.1
2023-01-13T00:51:07.344Z,15.1
2023-01-13T01:01:07.580Z,15
2023-01-13T01:11:07.314Z,15
2023-01-13T01:21:07.464Z,15
2023-01-13T01:31:07.456Z,15
2023-01-13T01:41:07.467Z,15
2023-01-13T01:51:07.523Z,14.9
2023-01-13T02:01:07.630Z,14.9
2023-01-13T02:11:07.525Z,14.9
2023-01-13T02:21:07.453Z,14.8
2023-01-13T02:31:07.533Z,14.8
2023-01-13T02:41:07.423Z,14.7
2023-01-13T02:51:07.505Z,14.7
2023-01-13T03:01:07.556Z,14.7
2023-01-13T03:11:07.565Z,14.7
2023-01-13T03:21:07.660Z,14.7
2023-01-13T03:31:07.595Z,14.6
2023-01-13T03:41:07.631Z,14.6
2023-01-13T03:51:07.513Z,14.6
2023-01-13T04:01:07.738Z,14.6
2023-01-13T04:11:07.515Z,14.6
2023-01-13T04:21:07.638Z,14.5
2023-01-13T04:31:07.710Z,14.5
2023-01-13T04:41:07.639Z,14.5
2023-01-13T04:51:07.700Z,14.5
2023-01-13T05:01:07.635Z,14.5
2023-01-13T05:11:07.703Z,15
2023-01-13T05:21:07.606Z,16.8
2023-01-13T05:31:07.755Z,16.4
2023-01-13T05:41:07.644Z,16.1
2023-01-13T05:51:07.709Z,15.7
2023-01-13T06:01:07.952Z,15.5
2023-01-13T06:11:07.689Z,16
2023-01-13T06:21:07.831Z,17.5
2023-01-13T06:31:07.786Z,17
2023-01-13T06:41:07.818Z,16.5
2023-01-13T06:51:07.671Z,16.2
2023-01-13T07:01:07.925Z,15.9
2023-01-13T07:11:07.690Z,16.1
2023-01-13T07:21:07.843Z,17.7
2023-01-13T07:31:07.883Z,17.2
2023-01-13T07:41:07.780Z,16.7
2023-01-13T07:51:07.869Z,16.4
2023-01-13T08:01:07.881Z,16.9
2023-01-13T08:11:07.875Z,18.2
2023-01-13T08:21:07.833Z,17.6
2023-01-13T08:31:07.950Z,17
2023-01-13T08:41:07.984Z,16.7
2023-01-13T08:51:07.847Z,16.3
2023-01-13T09:01:08.073Z,16.1
2023-01-13T09:11:07.852Z,15.9
2023-01-13T09:21:08.060Z,15.8
2023-01-13T09:31:07.840Z,15.6
2023-01-13T09:41:07.965Z,15.6
2023-01-13T09:51:08.239Z,15.6
2023-01-13T10:01:08.040Z,15.7
2023-01-13T10:11:08.053Z,15.7
2023-01-13T10:21:08.154Z,15.4
2023-01-13T10:31:08.117Z,15.3
2023-01-13T10:41:08.410Z,15.3
2023-01-13T10:51:08.110Z,15.3
2023-01-13T11:01:08.133Z,15.2
2023-01-13T11:11:08.042Z,15.2
2023-01-13T11:21:08.027Z,15.3
2023-01-13T11:31:08.127Z,15.1
2023-01-13T11:41:08.575Z,15.1
2023-01-13T11:51:08.067Z,15.3
2023-01-13T12:01:08.225Z,15.2
2023-01-13T12:11:08.035Z,15.1
2023-01-13T12:21:08.180Z,15.1
2023-01-13T12:31:08.061Z,15
2023-01-13T12:41:08.165Z,15
2023-01-13T12:51:08.013Z,15
2023-01-13T13:01:08.213Z,15
2023-01-13T13:11:08.029Z,15.2
2023-01-13T13:21:08.172Z,15.2
2023-01-13T13:31:08.297Z,15.1
2023-01-13T13:41:08.139Z,15
2023-01-13T13:51:08.210Z,15
2023-01-13T14:01:08.289Z,14.9
2023-01-13T14:11:08.179Z,14.9
2023-01-13T14:21:08.080Z,15.1
2023-01-13T14:31:08.168Z,15.3
2023-01-13T14:41:08.253Z,15.1
2023-01-13T14:51:08.130Z,15
2023-01-13T15:01:08.289Z,14.9
2023-01-13T15:11:08.133Z,14.8
2023-01-13T15:21:08.247Z,14.8
2023-01-13T15:31:08.134Z,14.8
2023-01-13T15:41:08.265Z,14.8
2023-01-13T15:51:08.103Z,14.7
2023-01-13T16:01:08.291Z,14.7
2023-01-13T16:11:08.309Z,14.7
2023-01-13T16:21:08.236Z,14.7
2023-01-13T16:31:08.406Z,14.6
2023-01-13T16:41:08.280Z,14.6
2023-01-13T16:51:08.370Z,14.6
2023-01-13T17:01:08.358Z,14.6
2023-01-13T17:11:08.360Z,14.6
2023-01-13T17:21:08.475Z,14.5
2023-01-13T17:31:08.394Z,14.5
2023-01-13T17:41:08.474Z,14.5
2023-01-13T17:51:08.352Z,14.5
2023-01-13T18:01:08.517Z,14.5
2023-01-13T18:11:08.374Z,15.9
2023-01-13T18:21:08.482Z,17.5
2023-01-13T18:31:08.424Z,17.3
2023-01-13T18:41:08.495Z,16.6
2023-01-13T18:51:08.554Z,16.2
2023-01-13T19:01:08.550Z,17.3
2023-01-13T19:11:08.444Z,17.8
2023-01-13T19:21:08.941Z,17.3
2023-01-13T19:31:08.880Z,16.7
2023-01-13T19:41:08.925Z,16.3
2023-01-13T19:51:09.145Z,16.1
2023-01-13T20:01:08.661Z,16.3
2023-01-13T20:11:08.790Z,18.1
2023-01-13T20:21:08.922Z,17.5
2023-01-13T20:31:09.480Z,17.1
2023-01-13T20:41:08.818Z,16.7
2023-01-13T20:51:08.593Z,16.4
2023-01-13T21:01:09.406Z,16.1
2023-01-13T21:11:09.445Z,16
2023-01-13T21:21:09.512Z,15.8
2023-01-13T21:31:09.552Z,15.7
2023-01-13T21:41:09.663Z,15.6
2023-01-13T21:51:09.489Z,15.5
2023-01-13T22:01:09.881Z,15.4
2023-01-13T22:11:08.610Z,15.4
2023-01-13T22:21:09.040Z,15.3
2023-01-13T22:31:09.155Z,15.3
2023-01-13T22:41:08.867Z,15.4
2023-01-13T22:51:09.072Z,15.3
2023-01-13T23:01:09.111Z,15.3
2023-01-13T23:11:09.184Z,15.2
2023-01-13T23:21:08.949Z,15.2
2023-01-13T23:31:09.234Z,15.2
2023-01-13T23:41:09.151Z,15.2
2023-01-13T23:51:09.020Z,15.3
